sensor_id;sensor_type;location;lat;lon;timestamp;P1;durP1;ratioP1;P2;durP2;ratioP2
44536;SDS011;30245;51.966;6.292;2023-07-29T00:00:51;1.40;;;1.10;;
44536;SDS011;30245;51.966;6.292;2023-07-29T00:03:16;1.77;;;1.15;;
44536;SDS011;30245;51.966;6.292;2023-07-29T00:05:42;1.83;;;1.42;;
44536;SDS011;30245;51.966;6.292;2023-07-29T00:08:08;2.13;;;1.10;;
44536;SDS011;30245;51.966;6.292;2023-07-29T00:10:35;1.40;;;1.13;;
44536;SDS011;30245;51.966;6.292;2023-07-29T00:13:02;1.30;;;0.80;;
44536;SDS011;30245;51.966;6.292;2023-07-29T00:15:28;1.50;;;0.85;;
44536;SDS011;30245;51.966;6.292;2023-07-29T00:17:54;1.60;;;1.35;;
44536;SDS011;30245;51.966;6.292;2023-07-29T00:20:20;1.70;;;0.85;;
44536;SDS011;30245;51.966;6.292;2023-07-29T00:22:45;3.05;;;1.10;;
44536;SDS011;30245;51.966;6.292;2023-07-29T00:25:11;1.30;;;1.00;;
44536;SDS011;30245;51.966;6.292;2023-07-29T00:27:37;4.18;;;1.30;;
44536;SDS011;30245;51.966;6.292;2023-07-29T00:30:02;2.67;;;1.75;;
44536;SDS011;30245;51.966;6.292;2023-07-29T00:32:29;3.47;;;1.00;;
44536;SDS011;30245;51.966;6.292;2023-07-29T00:34:55;2.03;;;1.15;;
44536;SDS011;30245;51.966;6.292;2023-07-29T00:37:21;1.40;;;1.20;;
44536;SDS011;30245;51.966;6.292;2023-07-29T00:39:47;2.00;;;0.93;;
44536;SDS011;30245;51.966;6.292;2023-07-29T00:42:12;2.03;;;1.15;;
44536;SDS011;30245;51.966;6.292;2023-07-29T00:44:38;1.20;;;0.82;;
44536;SDS011;30245;51.966;6.292;2023-07-29T00:47:03;1.70;;;1.00;;
44536;SDS011;30245;51.966;6.292;2023-07-29T00:49:31;2.33;;;0.97;;
44536;SDS011;30245;51.966;6.292;2023-07-29T00:51:57;1.95;;;1.00;;
44536;SDS011;30245;51.966;6.292;2023-07-29T00:54:23;1.60;;;0.80;;
44536;SDS011;30245;51.966;6.292;2023-07-29T00:56:48;6.05;;;2.55;;
44536;SDS011;30245;51.966;6.292;2023-07-29T00:59:14;2.67;;;1.08;;
44536;SDS011;30245;51.966;6.292;2023-07-29T01:01:40;2.00;;;1.65;;
44536;SDS011;30245;51.966;6.292;2023-07-29T01:04:06;1.75;;;1.60;;
44536;SDS011;30245;51.966;6.292;2023-07-29T01:11:57;2.58;;;1.63;;
44536;SDS011;30245;51.966;6.292;2023-07-29T01:15:07;1.60;;;1.08;;
44536;SDS011;30245;51.966;6.292;2023-07-29T01:17:42;1.90;;;1.20;;
44536;SDS011;30245;51.966;6.292;2023-07-29T01:20:12;3.70;;;1.48;;
44536;SDS011;30245;51.966;6.292;2023-07-29T01:22:40;1.55;;;1.13;;
44536;SDS011;30245;51.966;6.292;2023-07-29T01:25:07;1.83;;;1.38;;
44536;SDS011;30245;51.966;6.292;2023-07-29T01:27:33;2.70;;;1.60;;
44536;SDS011;30245;51.966;6.292;2023-07-29T01:29:58;1.55;;;1.35;;
44536;SDS011;30245;51.966;6.292;2023-07-29T01:32:28;4.28;;;2.67;;
44536;SDS011;30245;51.966;6.292;2023-07-29T01:35:03;2.35;;;2.15;;
44536;SDS011;30245;51.966;6.292;2023-07-29T01:37:39;2.85;;;2.65;;
44536;SDS011;30245;51.966;6.292;2023-07-29T01:40:06;2.28;;;1.77;;
44536;SDS011;30245;51.966;6.292;2023-07-29T01:42:33;2.35;;;2.15;;
44536;SDS011;30245;51.966;6.292;2023-07-29T01:44:59;4.22;;;2.50;;
44536;SDS011;30245;51.966;6.292;2023-07-29T01:47:25;2.80;;;2.60;;
44536;SDS011;30245;51.966;6.292;2023-07-29T01:49:51;3.78;;;2.38;;
44536;SDS011;30245;51.966;6.292;2023-07-29T01:52:16;2.63;;;2.42;;
44536;SDS011;30245;51.966;6.292;2023-07-29T01:54:42;3.15;;;2.78;;
44536;SDS011;30245;51.966;6.292;2023-07-29T01:57:08;4.95;;;2.00;;
44536;SDS011;30245;51.966;6.292;2023-07-29T01:59:33;3.08;;;2.70;;
44536;SDS011;30245;51.966;6.292;2023-07-29T02:01:59;2.88;;;2.05;;
44536;SDS011;30245;51.966;6.292;2023-07-29T02:04:25;3.28;;;2.97;;
44536;SDS011;30245;51.966;6.292;2023-07-29T02:06:51;2.85;;;2.05;;
44536;SDS011;30245;51.966;6.292;2023-07-29T02:09:17;7.18;;;3.30;;
44536;SDS011;30245;51.966;6.292;2023-07-29T02:11:42;3.00;;;2.58;;
44536;SDS011;30245;51.966;6.292;2023-07-29T02:14:08;3.08;;;2.78;;
44536;SDS011;30245;51.966;6.292;2023-07-29T02:16:33;5.95;;;3.17;;
44536;SDS011;30245;51.966;6.292;2023-07-29T02:18:59;3.53;;;2.25;;
44536;SDS011;30245;51.966;6.292;2023-07-29T02:21:25;3.03;;;2.47;;
44536;SDS011;30245;51.966;6.292;2023-07-29T02:23:50;2.95;;;2.63;;
44536;SDS011;30245;51.966;6.292;2023-07-29T02:26:16;3.08;;;2.08;;
44536;SDS011;30245;51.966;6.292;2023-07-29T02:28:42;2.40;;;2.20;;
44536;SDS011;30245;51.966;6.292;2023-07-29T02:33:39;3.03;;;2.53;;
44536;SDS011;30245;51.966;6.292;2023-07-29T02:36:04;3.42;;;2.15;;
44536;SDS011;30245;51.966;6.292;2023-07-29T02:38:30;3.17;;;1.83;;
44536;SDS011;30245;51.966;6.292;2023-07-29T02:40:56;2.00;;;1.70;;
44536;SDS011;30245;51.966;6.292;2023-07-29T02:43:21;4.15;;;2.17;;
44536;SDS011;30245;51.966;6.292;2023-07-29T02:45:47;4.03;;;1.60;;
44536;SDS011;30245;51.966;6.292;2023-07-29T02:48:13;2.47;;;2.08;;
44536;SDS011;30245;51.966;6.292;2023-07-29T02:50:38;2.03;;;1.83;;
44536;SDS011;30245;51.966;6.292;2023-07-29T02:53:04;2.13;;;1.40;;
44536;SDS011;30245;51.966;6.292;2023-07-29T02:55:30;3.05;;;1.40;;
44536;SDS011;30245;51.966;6.292;2023-07-29T02:57:55;2.50;;;2.15;;
44536;SDS011;30245;51.966;6.292;2023-07-29T03:00:21;1.73;;;1.27;;
44536;SDS011;30245;51.966;6.292;2023-07-29T03:02:47;3.20;;;1.63;;
44536;SDS011;30245;51.966;6.292;2023-07-29T03:05:12;1.90;;;1.52;;
44536;SDS011;30245;51.966;6.292;2023-07-29T03:07:38;2.35;;;2.15;;
44536;SDS011;30245;51.966;6.292;2023-07-29T03:10:04;3.47;;;2.22;;
44536;SDS011;30245;51.966;6.292;2023-07-29T03:12:30;2.15;;;1.88;;
44536;SDS011;30245;51.966;6.292;2023-07-29T03:14:56;2.60;;;2.40;;
44536;SDS011;30245;51.966;6.292;2023-07-29T03:17:21;2.72;;;1.95;;
44536;SDS011;30245;51.966;6.292;2023-07-29T03:19:47;2.10;;;1.45;;
44536;SDS011;30245;51.966;6.292;2023-07-29T03:22:13;1.95;;;1.73;;
44536;SDS011;30245;51.966;6.292;2023-07-29T03:24:38;2.17;;;2.00;;
44536;SDS011;30245;51.966;6.292;2023-07-29T03:27:04;2.70;;;2.50;;
44536;SDS011;30245;51.966;6.292;2023-07-29T03:29:30;4.35;;;2.35;;
44536;SDS011;30245;51.966;6.292;2023-07-29T03:31:56;4.50;;;3.03;;
44536;SDS011;30245;51.966;6.292;2023-07-29T03:34:21;2.45;;;2.17;;
44536;SDS011;30245;51.966;6.292;2023-07-29T03:36:47;4.05;;;3.00;;
44536;SDS011;30245;51.966;6.292;2023-07-29T03:39:13;5.20;;;3.28;;
44536;SDS011;30245;51.966;6.292;2023-07-29T03:41:39;5.65;;;3.38;;
44536;SDS011;30245;51.966;6.292;2023-07-29T03:44:05;4.20;;;3.30;;
44536;SDS011;30245;51.966;6.292;2023-07-29T03:46:31;4.32;;;3.33;;
44536;SDS011;30245;51.966;6.292;2023-07-29T03:48:56;5.38;;;4.28;;
44536;SDS011;30245;51.966;6.292;2023-07-29T03:51:22;5.18;;;3.78;;
44536;SDS011;30245;51.966;6.292;2023-07-29T03:53:49;2.60;;;2.38;;
44536;SDS011;30245;51.966;6.292;2023-07-29T03:56:15;2.70;;;2.47;;
44536;SDS011;30245;51.966;6.292;2023-07-29T03:58:41;2.45;;;2.03;;
44536;SDS011;30245;51.966;6.292;2023-07-29T04:01:06;4.85;;;2.20;;
44536;SDS011;30245;51.966;6.292;2023-07-29T04:03:33;4.47;;;2.05;;
44536;SDS011;30245;51.966;6.292;2023-07-29T04:05:59;2.00;;;1.65;;
44536;SDS011;30245;51.966;6.292;2023-07-29T04:08:25;2.50;;;1.60;;
44536;SDS011;30245;51.966;6.292;2023-07-29T04:10:50;2.97;;;2.05;;
44536;SDS011;30245;51.966;6.292;2023-07-29T04:13:16;3.17;;;2.20;;
44536;SDS011;30245;51.966;6.292;2023-07-29T04:15:41;2.30;;;1.40;;
44536;SDS011;30245;51.966;6.292;2023-07-29T04:18:07;2.70;;;1.98;;
44536;SDS011;30245;51.966;6.292;2023-07-29T04:20:33;2.22;;;1.60;;
44536;SDS011;30245;51.966;6.292;2023-07-29T04:22:58;2.30;;;2.00;;
44536;SDS011;30245;51.966;6.292;2023-07-29T04:25:24;3.05;;;1.63;;
44536;SDS011;30245;51.966;6.292;2023-07-29T04:27:50;3.90;;;2.03;;
44536;SDS011;30245;51.966;6.292;2023-07-29T04:30:15;3.42;;;2.22;;
44536;SDS011;30245;51.966;6.292;2023-07-29T04:32:41;5.40;;;2.53;;
44536;SDS011;30245;51.966;6.292;2023-07-29T04:35:07;3.17;;;1.02;;
44536;SDS011;30245;51.966;6.292;2023-07-29T04:37:34;2.35;;;1.67;;
44536;SDS011;30245;51.966;6.292;2023-07-29T04:39:59;3.80;;;2.58;;
44536;SDS011;30245;51.966;6.292;2023-07-29T04:42:25;4.95;;;2.78;;
44536;SDS011;30245;51.966;6.292;2023-07-29T04:44:50;2.40;;;1.88;;
44536;SDS011;30245;51.966;6.292;2023-07-29T04:47:16;2.35;;;2.13;;
44536;SDS011;30245;51.966;6.292;2023-07-29T04:49:42;3.47;;;1.95;;
44536;SDS011;30245;51.966;6.292;2023-07-29T04:52:07;2.03;;;1.80;;
44536;SDS011;30245;51.966;6.292;2023-07-29T04:54:33;2.92;;;1.80;;
44536;SDS011;30245;51.966;6.292;2023-07-29T04:56:58;3.83;;;1.75;;
44536;SDS011;30245;51.966;6.292;2023-07-29T04:59:24;2.55;;;1.08;;
44536;SDS011;30245;51.966;6.292;2023-07-29T05:01:50;2.30;;;1.35;;
44536;SDS011;30245;51.966;6.292;2023-07-29T05:04:15;1.83;;;0.80;;
44536;SDS011;30245;51.966;6.292;2023-07-29T05:06:41;2.30;;;1.30;;
44536;SDS011;30245;51.966;6.292;2023-07-29T05:09:13;1.55;;;1.08;;
44536;SDS011;30245;51.966;6.292;2023-07-29T05:11:43;3.60;;;1.13;;
44536;SDS011;30245;51.966;6.292;2023-07-29T05:14:16;1.92;;;1.00;;
44536;SDS011;30245;51.966;6.292;2023-07-29T05:16:42;2.38;;;1.17;;
44536;SDS011;30245;51.966;6.292;2023-07-29T05:19:09;2.28;;;0.95;;
44536;SDS011;30245;51.966;6.292;2023-07-29T05:21:34;3.10;;;0.85;;
44536;SDS011;30245;51.966;6.292;2023-07-29T05:24:00;1.75;;;1.20;;
44536;SDS011;30245;51.966;6.292;2023-07-29T05:26:26;1.10;;;0.70;;
44536;SDS011;30245;51.966;6.292;2023-07-29T05:28:51;1.60;;;0.80;;
44536;SDS011;30245;51.966;6.292;2023-07-29T05:31:17;0.98;;;0.50;;
44536;SDS011;30245;51.966;6.292;2023-07-29T05:33:42;1.42;;;0.60;;
44536;SDS011;30245;51.966;6.292;2023-07-29T05:36:08;1.40;;;0.88;;
44536;SDS011;30245;51.966;6.292;2023-07-29T05:38:34;2.45;;;0.70;;
44536;SDS011;30245;51.966;6.292;2023-07-29T05:40:59;1.10;;;0.52;;
44536;SDS011;30245;51.966;6.292;2023-07-29T05:43:26;3.03;;;0.73;;
44536;SDS011;30245;51.966;6.292;2023-07-29T05:45:52;1.10;;;0.52;;
44536;SDS011;30245;51.966;6.292;2023-07-29T05:48:19;1.50;;;0.70;;
44536;SDS011;30245;51.966;6.292;2023-07-29T05:50:44;1.10;;;0.50;;
44536;SDS011;30245;51.966;6.292;2023-07-29T05:53:10;0.80;;;0.40;;
44536;SDS011;30245;51.966;6.292;2023-07-29T05:55:36;1.23;;;0.70;;
44536;SDS011;30245;51.966;6.292;2023-07-29T05:58:01;1.73;;;0.73;;
44536;SDS011;30245;51.966;6.292;2023-07-29T06:00:27;1.33;;;0.70;;
44536;SDS011;30245;51.966;6.292;2023-07-29T06:02:53;5.38;;;0.82;;
44536;SDS011;30245;51.966;6.292;2023-07-29T06:05:18;1.77;;;0.88;;
44536;SDS011;30245;51.966;6.292;2023-07-29T06:07:44;2.83;;;0.90;;
44536;SDS011;30245;51.966;6.292;2023-07-29T06:10:10;1.33;;;0.75;;
44536;SDS011;30245;51.966;6.292;2023-07-29T06:12:42;1.20;;;0.70;;
44536;SDS011;30245;51.966;6.292;2023-07-29T06:15:08;1.40;;;0.73;;
44536;SDS011;30245;51.966;6.292;2023-07-29T06:17:34;1.88;;;0.80;;
44536;SDS011;30245;51.966;6.292;2023-07-29T06:19:59;1.75;;;0.82;;
44536;SDS011;30245;51.966;6.292;2023-07-29T06:22:25;2.50;;;0.63;;
44536;SDS011;30245;51.966;6.292;2023-07-29T06:24:50;0.90;;;0.57;;
44536;SDS011;30245;51.966;6.292;2023-07-29T06:27:16;7.15;;;0.98;;
44536;SDS011;30245;51.966;6.292;2023-07-29T06:29:42;1.52;;;0.95;;
44536;SDS011;30245;51.966;6.292;2023-07-29T06:32:07;1.48;;;0.65;;
44536;SDS011;30245;51.966;6.292;2023-07-29T06:34:33;3.15;;;0.80;;
44536;SDS011;30245;51.966;6.292;2023-07-29T06:36:58;1.98;;;0.73;;
44536;SDS011;30245;51.966;6.292;2023-07-29T06:39:24;1.70;;;0.70;;
44536;SDS011;30245;51.966;6.292;2023-07-29T06:41:49;1.63;;;0.90;;
44536;SDS011;30245;51.966;6.292;2023-07-29T06:44:15;2.22;;;0.80;;
44536;SDS011;30245;51.966;6.292;2023-07-29T06:46:41;2.08;;;0.80;;
44536;SDS011;30245;51.966;6.292;2023-07-29T06:49:07;3.03;;;1.27;;
44536;SDS011;30245;51.966;6.292;2023-07-29T06:51:32;1.75;;;0.65;;
44536;SDS011;30245;51.966;6.292;2023-07-29T06:54:00;1.85;;;1.10;;
44536;SDS011;30245;51.966;6.292;2023-07-29T06:56:26;1.35;;;0.70;;
44536;SDS011;30245;51.966;6.292;2023-07-29T06:58:51;1.70;;;0.90;;
44536;SDS011;30245;51.966;6.292;2023-07-29T07:01:17;1.65;;;0.88;;
44536;SDS011;30245;51.966;6.292;2023-07-29T07:03:43;1.40;;;0.63;;
44536;SDS011;30245;51.966;6.292;2023-07-29T07:06:08;1.77;;;0.90;;
44536;SDS011;30245;51.966;6.292;2023-07-29T07:08:34;1.60;;;0.73;;
44536;SDS011;30245;51.966;6.292;2023-07-29T07:11:00;2.42;;;1.10;;
44536;SDS011;30245;51.966;6.292;2023-07-29T07:13:26;1.90;;;1.10;;
44536;SDS011;30245;51.966;6.292;2023-07-29T07:15:55;2.47;;;0.85;;
44536;SDS011;30245;51.966;6.292;2023-07-29T07:18:21;2.75;;;0.70;;
44536;SDS011;30245;51.966;6.292;2023-07-29T07:20:51;2.40;;;0.70;;
44536;SDS011;30245;51.966;6.292;2023-07-29T07:23:17;1.50;;;1.02;;
44536;SDS011;30245;51.966;6.292;2023-07-29T07:25:43;2.45;;;0.95;;
44536;SDS011;30245;51.966;6.292;2023-07-29T07:28:09;2.72;;;0.60;;
44536;SDS011;30245;51.966;6.292;2023-07-29T07:30:35;1.40;;;1.15;;
44536;SDS011;30245;51.966;6.292;2023-07-29T07:33:05;1.30;;;0.68;;
44536;SDS011;30245;51.966;6.292;2023-07-29T07:35:30;1.60;;;0.80;;
44536;SDS011;30245;51.966;6.292;2023-07-29T07:37:56;1.20;;;0.63;;
44536;SDS011;30245;51.966;6.292;2023-07-29T07:40:21;1.65;;;1.05;;
44536;SDS011;30245;51.966;6.292;2023-07-29T07:42:47;1.48;;;1.25;;
44536;SDS011;30245;51.966;6.292;2023-07-29T07:45:13;2.17;;;1.30;;
44536;SDS011;30245;51.966;6.292;2023-07-29T07:47:38;2.92;;;1.25;;
44536;SDS011;30245;51.966;6.292;2023-07-29T07:50:04;1.77;;;1.15;;
44536;SDS011;30245;51.966;6.292;2023-07-29T07:52:30;2.75;;;1.02;;
44536;SDS011;30245;51.966;6.292;2023-07-29T07:54:55;2.00;;;0.98;;
44536;SDS011;30245;51.966;6.292;2023-07-29T07:57:21;1.58;;;0.63;;
44536;SDS011;30245;51.966;6.292;2023-07-29T07:59:47;1.40;;;1.02;;
44536;SDS011;30245;51.966;6.292;2023-07-29T08:02:12;1.42;;;0.55;;
44536;SDS011;30245;51.966;6.292;2023-07-29T08:04:38;2.08;;;1.33;;
44536;SDS011;30245;51.966;6.292;2023-07-29T08:07:04;1.70;;;0.60;;
44536;SDS011;30245;51.966;6.292;2023-07-29T08:09:29;1.42;;;0.68;;
44536;SDS011;30245;51.966;6.292;2023-07-29T08:11:55;1.40;;;0.70;;
44536;SDS011;30245;51.966;6.292;2023-07-29T08:14:21;1.80;;;0.60;;
44536;SDS011;30245;51.966;6.292;2023-07-29T08:16:47;1.67;;;0.75;;
44536;SDS011;30245;51.966;6.292;2023-07-29T08:19:12;1.65;;;0.70;;
44536;SDS011;30245;51.966;6.292;2023-07-29T08:21:38;1.50;;;0.40;;
44536;SDS011;30245;51.966;6.292;2023-07-29T08:24:04;0.90;;;0.60;;
44536;SDS011;30245;51.966;6.292;2023-07-29T08:26:29;4.07;;;0.50;;
44536;SDS011;30245;51.966;6.292;2023-07-29T08:28:55;1.08;;;0.70;;
44536;SDS011;30245;51.966;6.292;2023-07-29T08:31:21;1.67;;;0.60;;
44536;SDS011;30245;51.966;6.292;2023-07-29T08:33:46;1.05;;;0.50;;
44536;SDS011;30245;51.966;6.292;2023-07-29T08:36:12;0.88;;;0.52;;
44536;SDS011;30245;51.966;6.292;2023-07-29T08:38:37;1.20;;;0.60;;
44536;SDS011;30245;51.966;6.292;2023-07-29T08:43:59;1.33;;;0.93;;
44536;SDS011;30245;51.966;6.292;2023-07-29T08:46:31;1.27;;;0.52;;
44536;SDS011;30245;51.966;6.292;2023-07-29T08:48:58;4.88;;;1.02;;
44536;SDS011;30245;51.966;6.292;2023-07-29T08:53:52;1.42;;;0.70;;
44536;SDS011;30245;51.966;6.292;2023-07-29T08:56:18;1.25;;;0.63;;
44536;SDS011;30245;51.966;6.292;2023-07-29T08:58:43;2.25;;;0.65;;
44536;SDS011;30245;51.966;6.292;2023-07-29T09:01:09;1.73;;;0.60;;
44536;SDS011;30245;51.966;6.292;2023-07-29T09:03:36;1.60;;;0.40;;
44536;SDS011;30245;51.966;6.292;2023-07-29T09:06:01;1.00;;;0.40;;
44536;SDS011;30245;51.966;6.292;2023-07-29T09:08:28;1.25;;;0.70;;
44536;SDS011;30245;51.966;6.292;2023-07-29T09:10:54;1.50;;;0.95;;
44536;SDS011;30245;51.966;6.292;2023-07-29T09:13:23;1.27;;;0.95;;
44536;SDS011;30245;51.966;6.292;2023-07-29T09:15:53;1.00;;;0.65;;
44536;SDS011;30245;51.966;6.292;2023-07-29T09:18:21;1.38;;;0.57;;
44536;SDS011;30245;51.966;6.292;2023-07-29T09:20:47;1.85;;;0.80;;
44536;SDS011;30245;51.966;6.292;2023-07-29T09:23:14;1.45;;;0.75;;
44536;SDS011;30245;51.966;6.292;2023-07-29T09:25:39;1.48;;;0.70;;
44536;SDS011;30245;51.966;6.292;2023-07-29T09:28:15;0.98;;;0.60;;
44536;SDS011;30245;51.966;6.292;2023-07-29T09:30:42;0.85;;;0.40;;
44536;SDS011;30245;51.966;6.292;2023-07-29T09:33:10;0.98;;;0.40;;
44536;SDS011;30245;51.966;6.292;2023-07-29T09:35:37;0.70;;;0.30;;
44536;SDS011;30245;51.966;6.292;2023-07-29T09:38:03;0.55;;;0.25;;
44536;SDS011;30245;51.966;6.292;2023-07-29T09:40:33;3.15;;;0.30;;
44536;SDS011;30245;51.966;6.292;2023-07-29T09:43:01;0.98;;;0.40;;
44536;SDS011;30245;51.966;6.292;2023-07-29T09:45:27;2.08;;;0.20;;
44536;SDS011;30245;51.966;6.292;2023-07-29T09:47:53;1.33;;;0.30;;
44536;SDS011;30245;51.966;6.292;2023-07-29T09:50:22;1.02;;;0.28;;
44536;SDS011;30245;51.966;6.292;2023-07-29T09:52:49;1.98;;;0.30;;
44536;SDS011;30245;51.966;6.292;2023-07-29T09:55:17;0.45;;;0.20;;
44536;SDS011;30245;51.966;6.292;2023-07-29T09:57:46;1.10;;;0.20;;
44536;SDS011;30245;51.966;6.292;2023-07-29T10:00:12;0.70;;;0.30;;
44536;SDS011;30245;51.966;6.292;2023-07-29T10:02:42;0.70;;;0.20;;
44536;SDS011;30245;51.966;6.292;2023-07-29T10:05:09;0.45;;;0.20;;
44536;SDS011;30245;51.966;6.292;2023-07-29T10:07:38;0.70;;;0.30;;
44536;SDS011;30245;51.966;6.292;2023-07-29T10:10:05;0.57;;;0.30;;
44536;SDS011;30245;51.966;6.292;2023-07-29T10:12:32;1.80;;;0.40;;
44536;SDS011;30245;51.966;6.292;2023-07-29T10:15:05;0.45;;;0.20;;
44536;SDS011;30245;51.966;6.292;2023-07-29T10:17:38;0.90;;;0.13;;
44536;SDS011;30245;51.966;6.292;2023-07-29T10:20:05;0.82;;;0.25;;
44536;SDS011;30245;51.966;6.292;2023-07-29T10:22:41;1.42;;;0.30;;
44536;SDS011;30245;51.966;6.292;2023-07-29T10:25:09;0.45;;;0.20;;
44536;SDS011;30245;51.966;6.292;2023-07-29T10:30:12;0.80;;;0.30;;
44536;SDS011;30245;51.966;6.292;2023-07-29T10:32:39;0.57;;;0.20;;
44536;SDS011;30245;51.966;6.292;2023-07-29T10:35:08;1.65;;;0.30;;
44536;SDS011;30245;51.966;6.292;2023-07-29T10:37:34;0.90;;;0.30;;
44536;SDS011;30245;51.966;6.292;2023-07-29T10:40:00;0.80;;;0.20;;
44536;SDS011;30245;51.966;6.292;2023-07-29T10:42:30;0.70;;;0.20;;
44536;SDS011;30245;51.966;6.292;2023-07-29T10:44:56;0.73;;;0.30;;
44536;SDS011;30245;51.966;6.292;2023-07-29T10:47:23;0.55;;;0.35;;
44536;SDS011;30245;51.966;6.292;2023-07-29T10:49:53;1.85;;;0.30;;
44536;SDS011;30245;51.966;6.292;2023-07-29T10:57:30;0.50;;;0.30;;
44536;SDS011;30245;51.966;6.292;2023-07-29T11:00:01;0.50;;;0.28;;
44536;SDS011;30245;51.966;6.292;2023-07-29T11:02:32;0.73;;;0.30;;
44536;SDS011;30245;51.966;6.292;2023-07-29T11:05:05;0.70;;;0.30;;
44536;SDS011;30245;51.966;6.292;2023-07-29T11:07:32;0.70;;;0.40;;
44536;SDS011;30245;51.966;6.292;2023-07-29T11:10:12;0.60;;;0.28;;
44536;SDS011;30245;51.966;6.292;2023-07-29T11:17:37;0.60;;;0.40;;
44536;SDS011;30245;51.966;6.292;2023-07-29T11:20:04;0.60;;;0.20;;
44536;SDS011;30245;51.966;6.292;2023-07-29T11:22:32;3.10;;;0.82;;
44536;SDS011;30245;51.966;6.292;2023-07-29T11:24:57;0.52;;;0.20;;
44536;SDS011;30245;51.966;6.292;2023-07-29T11:27:23;0.70;;;0.20;;
44536;SDS011;30245;51.966;6.292;2023-07-29T11:29:49;0.70;;;0.30;;
44536;SDS011;30245;51.966;6.292;2023-07-29T11:32:15;0.57;;;0.30;;
44536;SDS011;30245;51.966;6.292;2023-07-29T11:34:41;0.65;;;0.20;;
44536;SDS011;30245;51.966;6.292;2023-07-29T11:37:09;0.70;;;0.25;;
44536;SDS011;30245;51.966;6.292;2023-07-29T11:39:39;0.82;;;0.20;;
44536;SDS011;30245;51.966;6.292;2023-07-29T11:42:06;0.52;;;0.22;;
44536;SDS011;30245;51.966;6.292;2023-07-29T11:44:32;1.10;;;0.25;;
44536;SDS011;30245;51.966;6.292;2023-07-29T11:46:57;0.90;;;0.32;;
44536;SDS011;30245;51.966;6.292;2023-07-29T11:49:23;0.47;;;0.20;;
44536;SDS011;30245;51.966;6.292;2023-07-29T11:51:49;1.35;;;0.40;;
44536;SDS011;30245;51.966;6.292;2023-07-29T11:54:15;0.82;;;0.20;;
44536;SDS011;30245;51.966;6.292;2023-07-29T11:56:40;0.30;;;0.17;;
44536;SDS011;30245;51.966;6.292;2023-07-29T11:59:06;0.75;;;0.20;;
44536;SDS011;30245;51.966;6.292;2023-07-29T12:01:32;0.40;;;0.15;;
44536;SDS011;30245;51.966;6.292;2023-07-29T12:03:58;1.65;;;0.17;;
44536;SDS011;30245;51.966;6.292;2023-07-29T12:06:24;0.40;;;0.20;;
44536;SDS011;30245;51.966;6.292;2023-07-29T12:08:50;0.13;;;0.10;;
44536;SDS011;30245;51.966;6.292;2023-07-29T12:11:16;0.30;;;0.10;;
44536;SDS011;30245;51.966;6.292;2023-07-29T12:13:43;0.20;;;0.10;;
44536;SDS011;30245;51.966;6.292;2023-07-29T12:16:08;0.22;;;0.10;;
44536;SDS011;30245;51.966;6.292;2023-07-29T12:18:35;0.60;;;0.22;;
44536;SDS011;30245;51.966;6.292;2023-07-29T12:21:01;0.50;;;0.20;;
44536;SDS011;30245;51.966;6.292;2023-07-29T12:23:28;0.40;;;0.20;;
44536;SDS011;30245;51.966;6.292;2023-07-29T12:25:58;0.98;;;0.40;;
44536;SDS011;30245;51.966;6.292;2023-07-29T12:28:24;0.77;;;0.30;;
44536;SDS011;30245;51.966;6.292;2023-07-29T12:30:56;4.05;;;0.75;;
44536;SDS011;30245;51.966;6.292;2023-07-29T12:33:35;1.48;;;0.30;;
44536;SDS011;30245;51.966;6.292;2023-07-29T12:36:02;0.57;;;0.20;;
44536;SDS011;30245;51.966;6.292;2023-07-29T12:38:28;2.22;;;0.20;;
44536;SDS011;30245;51.966;6.292;2023-07-29T12:40:55;1.05;;;0.25;;
44536;SDS011;30245;51.966;6.292;2023-07-29T12:43:20;0.73;;;0.40;;
44536;SDS011;30245;51.966;6.292;2023-07-29T12:45:48;3.53;;;0.30;;
44536;SDS011;30245;51.966;6.292;2023-07-29T12:48:14;1.30;;;0.32;;
44536;SDS011;30245;51.966;6.292;2023-07-29T12:50:40;1.30;;;0.57;;
44536;SDS011;30245;51.966;6.292;2023-07-29T12:53:06;0.60;;;0.30;;
44536;SDS011;30245;51.966;6.292;2023-07-29T12:55:32;2.50;;;0.55;;
44536;SDS011;30245;51.966;6.292;2023-07-29T12:57:58;0.80;;;0.55;;
44536;SDS011;30245;51.966;6.292;2023-07-29T13:00:24;0.70;;;0.47;;
44536;SDS011;30245;51.966;6.292;2023-07-29T13:02:50;0.30;;;0.20;;
44536;SDS011;30245;51.966;6.292;2023-07-29T13:05:16;0.68;;;0.20;;
44536;SDS011;30245;51.966;6.292;2023-07-29T13:07:42;1.25;;;0.10;;
44536;SDS011;30245;51.966;6.292;2023-07-29T13:10:11;0.32;;;0.10;;
44536;SDS011;30245;51.966;6.292;2023-07-29T13:12:37;0.50;;;0.20;;
44536;SDS011;30245;51.966;6.292;2023-07-29T13:15:03;0.55;;;0.20;;
44536;SDS011;30245;51.966;6.292;2023-07-29T13:17:29;0.70;;;0.20;;
44536;SDS011;30245;51.966;6.292;2023-07-29T13:19:55;0.43;;;0.10;;
44536;SDS011;30245;51.966;6.292;2023-07-29T13:22:21;0.35;;;0.20;;
44536;SDS011;30245;51.966;6.292;2023-07-29T13:24:46;0.75;;;0.25;;
44536;SDS011;30245;51.966;6.292;2023-07-29T13:27:12;0.20;;;0.10;;
44536;SDS011;30245;51.966;6.292;2023-07-29T13:29:38;1.67;;;0.20;;
44536;SDS011;30245;51.966;6.292;2023-07-29T13:32:05;0.30;;;0.10;;
44536;SDS011;30245;51.966;6.292;2023-07-29T13:34:31;0.10;;;0.03;;
44536;SDS011;30245;51.966;6.292;2023-07-29T13:36:57;0.30;;;0.30;;
44536;SDS011;30245;51.966;6.292;2023-07-29T13:39:23;0.70;;;0.22;;
44536;SDS011;30245;51.966;6.292;2023-07-29T13:41:48;0.38;;;0.20;;
44536;SDS011;30245;51.966;6.292;2023-07-29T13:44:14;0.73;;;0.30;;
44536;SDS011;30245;51.966;6.292;2023-07-29T13:46:39;1.10;;;0.25;;
44536;SDS011;30245;51.966;6.292;2023-07-29T13:49:05;0.70;;;0.30;;
44536;SDS011;30245;51.966;6.292;2023-07-29T13:51:30;0.70;;;0.32;;
44536;SDS011;30245;51.966;6.292;2023-07-29T13:53:56;0.70;;;0.20;;
44536;SDS011;30245;51.966;6.292;2023-07-29T13:56:22;1.30;;;0.77;;
44536;SDS011;30245;51.966;6.292;2023-07-29T13:58:48;0.65;;;0.45;;
44536;SDS011;30245;51.966;6.292;2023-07-29T14:01:13;1.45;;;0.30;;
44536;SDS011;30245;51.966;6.292;2023-07-29T14:03:39;0.57;;;0.30;;
44536;SDS011;30245;51.966;6.292;2023-07-29T14:06:04;0.45;;;0.20;;
44536;SDS011;30245;51.966;6.292;2023-07-29T14:08:30;0.17;;;0.10;;
44536;SDS011;30245;51.966;6.292;2023-07-29T14:10:55;0.55;;;0.10;;
44536;SDS011;30245;51.966;6.292;2023-07-29T14:13:21;0.38;;;0.15;;
44536;SDS011;30245;51.966;6.292;2023-07-29T14:15:47;0.55;;;0.30;;
44536;SDS011;30245;51.966;6.292;2023-07-29T14:18:12;1.50;;;0.20;;
44536;SDS011;30245;51.966;6.292;2023-07-29T14:20:38;2.38;;;0.20;;
44536;SDS011;30245;51.966;6.292;2023-07-29T14:23:04;0.68;;;0.20;;
44536;SDS011;30245;51.966;6.292;2023-07-29T14:25:29;0.70;;;0.30;;
44536;SDS011;30245;51.966;6.292;2023-07-29T14:27:55;0.57;;;0.17;;
44536;SDS011;30245;51.966;6.292;2023-07-29T14:30:20;0.50;;;0.17;;
44536;SDS011;30245;51.966;6.292;2023-07-29T14:32:46;0.28;;;0.10;;
44536;SDS011;30245;51.966;6.292;2023-07-29T14:35:12;0.77;;;0.10;;
44536;SDS011;30245;51.966;6.292;2023-07-29T14:37:37;0.30;;;0.20;;
44536;SDS011;30245;51.966;6.292;2023-07-29T14:40:03;0.30;;;0.10;;
44536;SDS011;30245;51.966;6.292;2023-07-29T14:42:30;1.25;;;0.47;;
44536;SDS011;30245;51.966;6.292;2023-07-29T14:44:55;1.15;;;0.22;;
44536;SDS011;30245;51.966;6.292;2023-07-29T14:47:21;0.60;;;0.15;;
44536;SDS011;30245;51.966;6.292;2023-07-29T14:49:46;0.30;;;0.13;;
44536;SDS011;30245;51.966;6.292;2023-07-29T14:52:12;0.40;;;0.20;;
44536;SDS011;30245;51.966;6.292;2023-07-29T14:54:38;0.45;;;0.20;;
44536;SDS011;30245;51.966;6.292;2023-07-29T14:57:05;0.15;;;0.10;;
44536;SDS011;30245;51.966;6.292;2023-07-29T14:59:32;0.30;;;0.10;;
44536;SDS011;30245;51.966;6.292;2023-07-29T15:01:58;0.20;;;0.13;;
44536;SDS011;30245;51.966;6.292;2023-07-29T15:04:24;0.20;;;0.10;;
44536;SDS011;30245;51.966;6.292;2023-07-29T15:06:49;0.20;;;0.10;;
44536;SDS011;30245;51.966;6.292;2023-07-29T15:09:15;0.30;;;0.20;;